createdAt,value
2022-10-07T00:03:55.092Z,16.8
2022-10-07T00:09:45.035Z,16.8
2022-10-07T00:15:21.170Z,16.8
2022-10-07T00:21:05.126Z,16.7
2022-10-07T00:26:39.989Z,16.7
2022-10-07T00:32:15.613Z,16.7
2022-10-07T00:37:51.394Z,16.7
2022-10-07T00:43:39.326Z,16.6
2022-10-07T00:49:23.435Z,16.6
2022-10-07T00:54:58.378Z,16.5
2022-10-07T01:00:34.191Z,16.5
2022-10-07T01:06:09.244Z,16.5
2022-10-07T01:12:08.831Z,16.5
2022-10-07T01:17:41.888Z,16.4
2022-10-07T01:23:20.720Z,16.4
2022-10-07T01:28:55.876Z,16.3
2022-10-07T01:34:52.264Z,16.3
2022-10-07T01:40:27.038Z,16.3
2022-10-07T01:46:03.291Z,16.2
2022-10-07T01:51:41.534Z,16.2
2022-10-07T01:57:17.531Z,16.2
2022-10-07T02:02:58.455Z,16.2
2022-10-07T02:08:45.331Z,16.1
2022-10-07T02:14:21.393Z,16.1
2022-10-07T02:20:19.881Z,16.1
2022-10-07T02:25:56.879Z,16
2022-10-07T02:31:34.997Z,16
2022-10-07T02:37:30.325Z,16
2022-10-07T02:43:19.797Z,16
2022-10-07T02:49:06.641Z,15.9
2022-10-07T02:55:26.543Z,15.9
2022-10-07T03:01:01.548Z,15.9
2022-10-07T03:06:36.347Z,15.8
2022-10-07T03:12:35.739Z,15.8
2022-10-07T03:18:08.429Z,15.8
2022-10-07T03:23:52.121Z,15.7
2022-10-07T03:29:52.661Z,15.7
2022-10-07T03:35:27.515Z,15.7
2022-10-07T03:41:34.840Z,15.7
2022-10-07T03:47:51.452Z,15.7
2022-10-07T03:53:40.214Z,15.6
2022-10-07T03:59:24.215Z,15.6
2022-10-07T04:05:00.081Z,15.6
2022-10-07T04:10:56.953Z,15.6
2022-10-07T04:16:29.753Z,15.6
2022-10-07T04:22:14.844Z,15.5
2022-10-07T04:27:53.485Z,15.6
2022-10-07T04:33:38.221Z,15.5
2022-10-07T04:39:37.626Z,15.6
2022-10-07T04:45:37.152Z,15.5
2022-10-07T04:51:14.488Z,15.5
2022-10-07T04:56:53.699Z,15.4
2022-10-07T05:02:43.406Z,15.4
2022-10-07T05:08:55.848Z,15.4
2022-10-07T05:14:40.022Z,15.4
2022-10-07T05:20:15.119Z,15.4
2022-10-07T05:25:55.402Z,15.3
2022-10-07T05:31:48.268Z,15.3
2022-10-07T05:37:26.453Z,15.3
2022-10-07T05:43:01.410Z,15.3
2022-10-07T05:48:43.530Z,15.2
2022-10-07T05:54:26.149Z,15.2
2022-10-07T06:00:01.512Z,14.6
2022-10-07T06:05:36.655Z,14.1
2022-10-07T06:11:33.273Z,13.9
2022-10-07T06:17:05.967Z,13.6
2022-10-07T06:22:40.981Z,13.4
2022-10-07T06:28:16.216Z,13.5
2022-10-07T06:33:53.152Z,13.7
2022-10-07T06:39:29.630Z,13.8
2022-10-07T06:45:04.273Z,14
2022-10-07T06:50:39.124Z,14.1
2022-10-07T06:56:14.189Z,14
2022-10-07T07:01:48.992Z,13.9
2022-10-07T07:07:26.791Z,13.8
2022-10-07T07:13:03.213Z,14.1
2022-10-07T07:18:38.064Z,14.1
2022-10-07T07:24:13.074Z,14.3
2022-10-07T07:29:47.980Z,14.7
2022-10-07T07:35:23.021Z,14.9
2022-10-07T07:40:58.061Z,15
2022-10-07T07:46:33.328Z,15.1
2022-10-07T07:52:08.227Z,15.1
2022-10-07T07:57:43.693Z,15.3
2022-10-07T08:03:22.614Z,15.2
2022-10-07T08:08:57.777Z,15.2
2022-10-07T08:14:32.743Z,15.3
2022-10-07T08:20:09.641Z,15.3
2022-10-07T08:25:44.733Z,15.5
2022-10-07T08:31:20.049Z,16
2022-10-07T08:36:56.717Z,16.6
2022-10-07T08:42:31.850Z,16.6
2022-10-07T08:48:06.992Z,17
2022-10-07T08:53:43.388Z,17.2
2022-10-07T08:59:18.586Z,17.6
2022-10-07T09:04:54.021Z,18.2
2022-10-07T09:10:29.146Z,18.4
2022-10-07T09:16:04.102Z,18.6
2022-10-07T09:21:39.929Z,18.9
2022-10-07T09:27:15.138Z,19.1
2022-10-07T09:32:51.351Z,19.4
2022-10-07T09:38:26.509Z,19.7
2022-10-07T09:44:01.749Z,19.8
2022-10-07T09:49:36.721Z,20.1
2022-10-07T09:55:12.102Z,20.4
2022-10-07T10:00:53.493Z,20.6
2022-10-07T10:06:29.002Z,20.8
2022-10-07T10:12:25.869Z,21
2022-10-07T10:17:59.598Z,21.2
2022-10-07T10:23:35.180Z,21.5
2022-10-07T10:29:10.562Z,21.7
2022-10-07T10:34:45.950Z,22
2022-10-07T10:40:30.408Z,22.2
2022-10-07T10:46:05.551Z,22.4
2022-10-07T10:51:41.514Z,22.6
2022-10-07T10:57:16.368Z,22.8
2022-10-07T11:02:51.728Z,23
2022-10-07T11:08:29.170Z,23.1
2022-10-07T11:14:13.557Z,23.4
2022-10-07T11:19:49.476Z,23.6
2022-10-07T11:25:24.784Z,23.8
2022-10-07T11:30:59.997Z,23.9
2022-10-07T11:36:35.693Z,23.9
2022-10-07T11:42:10.861Z,24.2
2022-10-07T11:47:45.871Z,24.8
2022-10-07T11:53:20.801Z,24.5
2022-10-07T11:58:56.777Z,24.4
2022-10-07T12:04:32.566Z,24.9
2022-10-07T12:10:07.508Z,25.7
2022-10-07T12:15:42.514Z,26.4
2022-10-07T12:21:18.729Z,26.8
2022-10-07T12:26:54.733Z,27.9
2022-10-07T12:32:30.913Z,28.4
2022-10-07T12:38:06.997Z,29
2022-10-07T12:43:42.016Z,30.2
2022-10-07T12:49:17.254Z,30.4
2022-10-07T12:54:52.412Z,30
2022-10-07T13:00:27.452Z,28.1
2022-10-07T13:06:03.297Z,28.9
2022-10-07T13:11:38.199Z,29.8
2022-10-07T13:17:14.357Z,31.6
2022-10-07T13:22:49.371Z,33.7
2022-10-07T13:28:24.216Z,38.4
2022-10-07T13:34:00.342Z,37.9
2022-10-07T13:39:35.844Z,37.9
2022-10-07T13:45:10.833Z,41.8
2022-10-07T13:50:46.799Z,41.4
2022-10-07T13:56:22.251Z,42.4
2022-10-07T14:01:57.481Z,42.2
2022-10-07T14:07:33.906Z,42.1
2022-10-07T14:13:08.859Z,34.9
2022-10-07T14:18:43.707Z,33.4
2022-10-07T14:24:18.577Z,32.4
2022-10-07T14:29:54.282Z,31.8
2022-10-07T14:35:28.909Z,32.4
2022-10-07T14:41:05.069Z,34.8
2022-10-07T14:46:41.153Z,35.2
2022-10-07T14:52:16.351Z,33.9
2022-10-07T14:57:51.903Z,33.3
2022-10-07T15:03:27.515Z,31.9
2022-10-07T15:09:03.816Z,30.5
2022-10-07T15:14:38.425Z,29.9
2022-10-07T15:20:14.366Z,30
2022-10-07T15:25:49.432Z,29.3
2022-10-07T15:31:24.398Z,28.6
2022-10-07T15:37:01.503Z,27.5
2022-10-07T15:42:38.309Z,27.2
2022-10-07T15:48:14.203Z,27
2022-10-07T15:53:49.016Z,26.9
2022-10-07T15:59:24.070Z,26.3
2022-10-07T16:04:58.876Z,25.9
2022-10-07T16:10:33.708Z,25.4
2022-10-07T16:16:08.430Z,24.8
2022-10-07T16:21:44.423Z,24.4
2022-10-07T16:27:19.825Z,24.1
2022-10-07T16:32:55.522Z,23.9
2022-10-07T16:38:30.433Z,23.6
2022-10-07T16:44:05.346Z,23.5
2022-10-07T16:49:40.310Z,23.2
2022-10-07T16:55:15.158Z,22.9
2022-10-07T17:00:50.532Z,22.7
2022-10-07T17:06:26.722Z,22.6
2022-10-07T17:12:23.678Z,22.4
2022-10-07T17:17:57.869Z,22.3
2022-10-07T17:23:33.757Z,22.2
2022-10-07T17:29:08.541Z,22.1
2022-10-07T17:34:45.503Z,21.9
2022-10-07T17:40:20.745Z,21.8
2022-10-07T17:45:55.869Z,21.7
2022-10-07T17:51:30.937Z,21.5
2022-10-07T17:57:05.795Z,21.4
2022-10-07T18:02:40.684Z,21.2
2022-10-07T18:08:17.451Z,21.1
2022-10-07T18:14:14.009Z,21.1
2022-10-07T18:19:46.864Z,21
2022-10-07T18:25:22.089Z,21.3
2022-10-07T18:30:57.291Z,21.5
2022-10-07T18:36:32.195Z,21.5
2022-10-07T18:42:15.509Z,21.5
2022-10-07T18:47:51.291Z,21.5
2022-10-07T18:53:31.283Z,21.5
2022-10-07T18:59:32.059Z,21.5
2022-10-07T19:05:11.197Z,21.5
2022-10-07T19:11:08.129Z,21.4
2022-10-07T19:16:41.226Z,21.4
2022-10-07T19:22:44.131Z,21.3
2022-10-07T19:28:22.779Z,21.2
2022-10-07T19:34:22.048Z,21.2
2022-10-07T19:40:17.773Z,21.1
2022-10-07T19:46:01.084Z,21.1
2022-10-07T19:51:46.527Z,21
2022-10-07T19:57:44.610Z,20.9
2022-10-07T20:03:22.958Z,20.9
2022-10-07T20:09:18.061Z,20.8
2022-10-07T20:15:08.381Z,20.7
2022-10-07T20:21:04.884Z,20.6
2022-10-07T20:27:00.729Z,20.5
2022-10-07T20:32:35.654Z,20.4
2022-10-07T20:38:10.255Z,20.3
2022-10-07T20:43:47.895Z,20.2
2022-10-07T20:49:25.446Z,20.2
2022-10-07T20:55:00.588Z,20.1
2022-10-07T21:00:36.434Z,20
2022-10-07T21:06:11.212Z,19.9
2022-10-07T21:12:10.850Z,19.9
2022-10-07T21:17:43.776Z,19.8
2022-10-07T21:23:18.848Z,19.7
2022-10-07T21:28:56.001Z,19.7
2022-10-07T21:34:53.248Z,19.6
2022-10-07T21:40:28.124Z,19.6
2022-10-07T21:46:03.758Z,19.7
2022-10-07T21:52:02.273Z,19.7
2022-10-07T21:57:50.029Z,19.6
2022-10-07T22:03:34.869Z,19.6
2022-10-07T22:09:10.001Z,19.6
2022-10-07T22:15:18.929Z,19.6
2022-10-07T22:20:55.051Z,19.6
2022-10-07T22:26:34.021Z,19.5
2022-10-07T22:32:50.987Z,19.5
2022-10-07T22:38:25.706Z,19.5
2022-10-07T22:44:00.595Z,19.5
2022-10-07T22:49:35.548Z,19.4
2022-10-07T22:55:18.690Z,19.4
2022-10-07T23:00:57.693Z,19.4
2022-10-07T23:06:38.070Z,19.4
2022-10-07T23:12:34.826Z,19.4
2022-10-07T23:18:07.633Z,19.4
2022-10-07T23:23:42.368Z,19.4
2022-10-07T23:29:21.376Z,19.4
2022-10-07T23:35:10.111Z,19.3
2022-10-07T23:40:44.887Z,19.3
2022-10-07T23:46:24.002Z,19.3
2022-10-07T23:51:59.821Z,19.2
2022-10-07T23:57:34.604Z,19.2
